Station Historical Data
Daily Summary for March 30, 2017 Units:  Metric    English   Both
« Previous Day
Next Day »
Daily Weekly Monthly Yearly Custom
  High: Low: Average:
Temperature: 5.8 °C 0.8 °C 3.2 °C
Dew Point: 1.7 °C -4.1 °C -1.2 °C
Humidity: 90% 55% 74%
Wind Speed: 20.9km/h 0km/h 7.7km/h
Wind Gust: 30.6km/h - -
Wind- - ENE
Pressure: 1026 hPa 1010.4 hPa -
Precipitation: 6.86 mm    
Historical Graphs
 
 
Tabular Data for March 30, 2017
Time Temperature Dew Point Pressure Wind Wind Speed Wind Gust Humidity Rainfall Rate (Hourly)
00:04 3.2 °C -2.1 °C 1024.3 hPa East 4.8 km/h 11.3 km/h 68% 0 mm
00:09 3.3 °C -2.1 °C 1024.3 hPa East 4.8 km/h 11.3 km/h 68% 0 mm
00:14 3.2 °C -2.1 °C 1024.3 hPa East 4.8 km/h 12.9 km/h 68% 0 mm
00:19 3.2 °C -2.2 °C 1024.3 hPa East 4.8 km/h 12.9 km/h 68% 0 mm
00:24 3.1 °C -2.2 °C 1023.9 hPa East 4.8 km/h 12.9 km/h 68% 0 mm
00:29 3.1 °C -2.3 °C 1023.9 hPa ENE 4.8 km/h 12.9 km/h 68% 0 mm
00:34 3 °C -2.3 °C 1024.3 hPa ESE 4.8 km/h 8 km/h 68% 0 mm
00:39 2.8 °C -2.5 °C 1024.3 hPa East 3.2 km/h 8 km/h 68% 0 mm
00:44 2.8 °C -2.3 °C 1024.3 hPa ENE 1.6 km/h 11.3 km/h 69% 0 mm
00:49 2.7 °C -2.4 °C 1024.3 hPa East 3.2 km/h 11.3 km/h 69% 0 mm
00:54 2.6 °C -2.6 °C 1024.3 hPa East 3.2 km/h 8 km/h 69% 0 mm
00:59 2.5 °C -2.4 °C 1024.3 hPa ENE 3.2 km/h 8 km/h 70% 0 mm
01:04 2.4 °C -2.5 °C 1024.3 hPa ENE 1.6 km/h 8 km/h 70% 0 mm
01:09 2.4 °C -2.6 °C 1024.3 hPa Calm   3.2 km/h 70% 0 mm
01:14 2.2 °C -2.5 °C 1024.6 hPa Calm     71% 0 mm
01:19 2.1 °C -2.6 °C 1024.6 hPa Calm   3.2 km/h 71% 0 mm
01:24 2.1 °C -2.4 °C 1024.9 hPa Calm   3.2 km/h 72% 0 mm
01:29 2 °C -2.5 °C 1024.9 hPa Calm   3.2 km/h 72% 0 mm
01:34 1.9 °C -2.6 °C 1025.3 hPa Calm     72% 0 mm
01:39 1.8 °C -2.7 °C 1025.3 hPa Calm   1.6 km/h 72% 0 mm
01:44 1.8 °C -2.7 °C 1025.3 hPa Calm     72% 0 mm
01:49 1.6 °C -2.7 °C 1025.6 hPa Calm     73% 0 mm
01:54 1.4 °C -2.9 °C 1025.3 hPa Calm     73% 0 mm
01:59 1.3 °C -2.8 °C 1025.3 hPa Calm     74% 0 mm
02:04 1.3 °C -2.8 °C 1025.6 hPa Calm     74% 0 mm
02:09 1.2 °C -2.9 °C 1025.6 hPa Calm     74% 0 mm
02:14 1 °C -2.8 °C 1025.3 hPa Calm   1.6 km/h 76% 0 mm
02:19 1.1 °C -2.7 °C 1025.3 hPa Calm     76% 0 mm
02:24 1.1 °C -2.9 °C 1025.3 hPa Calm     75% 0 mm
02:29 0.8 °C -2.9 °C 1025.3 hPa Calm     76% 0 mm
02:34 1.1 °C -2.6 °C 1025.3 hPa ENE 3.2 km/h 3.2 km/h 77% 0 mm
02:39 1.4 °C -2.3 °C 1025.3 hPa NE 1.6 km/h 6.4 km/h 76% 0 mm
02:44 1.4 °C -2.3 °C 1025.3 hPa NNE 3.2 km/h 4.8 km/h 76% 0 mm
02:49 1.6 °C -2.3 °C 1025.3 hPa NE 4.8 km/h 4.8 km/h 75% 0 mm
02:54 1.7 °C -2.5 °C 1025.3 hPa NE 3.2 km/h 4.8 km/h 74% 0 mm
02:59 1.7 °C -2.5 °C 1025.3 hPa NE 1.6 km/h 4.8 km/h 74% 0 mm
03:04 1.8 °C -2.4 °C 1025.3 hPa NE 1.6 km/h 8 km/h 74% 0 mm
03:09 1.9 °C -2.4 °C 1025.3 hPa NE 3.2 km/h 8 km/h 73% 0 mm
03:14 2 °C -2.3 °C 1025.6 hPa Calm   4.8 km/h 73% 0 mm
03:19 1.9 °C -2.4 °C 1026 hPa NE 4.8 km/h 4.8 km/h 73% 0 mm
03:24 2.1 °C -2.3 °C 1026 hPa NE 3.2 km/h 8 km/h 73% 0 mm
03:29 2.1 °C -2.2 °C 1026 hPa NE 4.8 km/h 9.7 km/h 73% 0 mm
03:34 2.2 °C -2.2 °C 1026 hPa NE 3.2 km/h 9.7 km/h 73% 0 mm
03:39 2.2 °C -2.2 °C 1026 hPa NE 3.2 km/h 9.7 km/h 73% 0 mm
03:44 2.2 °C -2.3 °C 1026 hPa NE 8 km/h 9.7 km/h 72% 0 mm
03:49 2.3 °C -2.3 °C 1025.6 hPa NE 4.8 km/h 12.9 km/h 72% 0 mm
03:54 2.2 °C -2.3 °C 1025.6 hPa NE 6.4 km/h 12.9 km/h 72% 0 mm
03:59 2.2 °C -2.1 °C 1025.6 hPa NE 6.4 km/h 12.9 km/h 73% 0 mm
04:04 2.2 °C -2.4 °C 1025.6 hPa NE 8 km/h 16.1 km/h 72% 0 mm
04:09 2.2 °C -2.4 °C 1025.6 hPa NE 8 km/h 16.1 km/h 72% 0 mm
04:14 2.1 °C -2.4 °C 1025.6 hPa NE 14.5 km/h 16.1 km/h 72% 0 mm
04:19 2.1 °C -2.4 °C 1025.6 hPa NE 8 km/h 17.7 km/h 72% 0 mm
04:24 2.1 °C -2.4 °C 1025.3 hPa NE 9.7 km/h 17.7 km/h 72% 0 mm
04:29 2.1 °C -2.4 °C 1024.9 hPa ENE 17.7 km/h 17.7 km/h 72% 0 mm
04:34 2 °C -2.5 °C 1025.3 hPa NE 11.3 km/h 20.9 km/h 72% 0 mm
04:39 1.9 °C -2.6 °C 1024.9 hPa NE 4.8 km/h 14.5 km/h 72% 0 mm
04:44 1.9 °C -2.4 °C 1024.9 hPa NE 8 km/h 12.9 km/h 73% 0 mm
04:49 1.9 °C -2.4 °C 1024.9 hPa NE 3.2 km/h 14.5 km/h 73% 0 mm
04:54 1.9 °C -2.4 °C 1024.9 hPa ENE 6.4 km/h 14.5 km/h 73% 0 mm
04:59 1.9 °C -2.4 °C 1024.6 hPa ENE 6.4 km/h 16.1 km/h 73% 0 mm
05:04 1.9 °C -2.4 °C 1024.6 hPa ENE 6.4 km/h 16.1 km/h 73% 0 mm
05:09 1.9 °C -2.4 °C 1024.6 hPa ENE 6.4 km/h 14.5 km/h 73% 0 mm
05:14 1.9 °C -2.4 °C 1024.6 hPa ENE 6.4 km/h 14.5 km/h 73% 0 mm
05:19 1.9 °C -2.4 °C 1024.3 hPa ENE 6.4 km/h 16.1 km/h 73% 0 mm
05:24 1.9 °C -2.4 °C 1024.3 hPa ENE 3.2 km/h 17.7 km/h 73% 0 mm
05:29 1.9 °C -2.6 °C 1024.3 hPa NE 9.7 km/h 20.9 km/h 72% 0 mm
05:34 1.9 °C -2.6 °C 1024.3 hPa NNE 9.7 km/h 16.1 km/h 72% 0 mm
05:39 1.9 °C -2.6 °C 1024.3 hPa SE 4.8 km/h 14.5 km/h 72% 0 mm
05:44 1.9 °C -2.6 °C 1024.3 hPa NNE 6.4 km/h 14.5 km/h 72% 0 mm
05:49 1.9 °C -2.6 °C 1024.3 hPa ENE 6.4 km/h 14.5 km/h 72% 0 mm
05:54 1.9 °C -2.4 °C 1024.6 hPa ENE 6.4 km/h 12.9 km/h 73% 0 mm
05:59 1.9 °C -2.4 °C 1024.6 hPa ENE 6.4 km/h 16.1 km/h 73% 0 mm
06:04 1.9 °C -2.4 °C 1024.3 hPa ENE 6.4 km/h 16.1 km/h 73% 0 mm
06:09 1.9 °C -2.6 °C 1024.3 hPa NE 3.2 km/h 17.7 km/h 72% 0 mm
06:14 1.9 °C -2.6 °C 1024.6 hPa East 4.8 km/h 17.7 km/h 72% 0 mm
06:19 1.9 °C -2.8 °C 1024.3 hPa ENE 6.4 km/h 17.7 km/h 71% 0 mm
06:24 1.9 °C -2.9 °C 1024.3 hPa ENE 8 km/h 17.7 km/h 70% 0 mm
06:29 2 °C -3.1 °C 1024.3 hPa ENE 8 km/h 17.7 km/h 69% 0 mm
06:34 2 °C -3.3 °C 1024.3 hPa East 8 km/h 19.3 km/h 68% 0 mm
06:39 2 °C -3.5 °C 1024.3 hPa ESE 12.9 km/h 20.9 km/h 67% 0 mm
06:44 1.9 °C -3.7 °C 1023.9 hPa ENE 3.2 km/h 24.1 km/h 66% 0 mm
06:49 1.9 °C -3.7 °C 1024.3 hPa East 8 km/h 14.5 km/h 66% 0 mm
06:54 1.9 °C -3.8 °C 1024.3 hPa ENE 6.4 km/h 16.1 km/h 66% 0 mm
06:59 1.9 °C -4 °C 1023.9 hPa ENE 8 km/h 19.3 km/h 65% 0 mm
07:04 1.8 °C -4.1 °C 1023.9 hPa ENE 8 km/h 19.3 km/h 65% 0 mm
07:09 1.9 °C -3.8 °C 1024.3 hPa NNE 6.4 km/h 11.3 km/h 66% 0 mm
07:14 1.9 °C -3.9 °C 1023.9 hPa NNE 20.9 km/h 20.9 km/h 65% 0 mm
07:19 2 °C -3.9 °C 1023.9 hPa East 4.8 km/h 20.9 km/h 65% 0 mm
07:24 1.9 °C -3.9 °C 1023.9 hPa ENE 8 km/h 20.9 km/h 65% 0 mm
07:29 2 °C -3.9 °C 1023.9 hPa East 6.4 km/h 17.7 km/h 65% 0 mm
07:34 2 °C -3.9 °C 1024.3 hPa ENE 1.6 km/h 20.9 km/h 65% 0 mm
07:39 2 °C -3.9 °C 1024.3 hPa ENE 6.4 km/h 17.7 km/h 65% 0 mm
07:44 2 °C -3.9 °C 1023.9 hPa ESE 8 km/h 12.9 km/h 65% 0 mm
07:49 2 °C -3.9 °C 1023.9 hPa East 8 km/h 20.9 km/h 65% 0 mm
07:54 2.1 °C -3.7 °C 1023.9 hPa ENE 6.4 km/h 20.9 km/h 66% 0 mm
07:59 2.1 °C -3.7 °C 1023.9 hPa ENE 6.4 km/h 17.7 km/h 66% 0 mm
08:04 2 °C -3.7 °C 1023.9 hPa ENE 6.4 km/h 17.7 km/h 66% 0 mm
08:09 2 °C -3.7 °C 1023.9 hPa East 8 km/h 22.5 km/h 66% 0 mm
08:14 2.1 °C -3.7 °C 1024.3 hPa East 8 km/h 16.1 km/h 66% 0 mm
08:19 2.1 °C -3.7 °C 1024.3 hPa NE 4.8 km/h 17.7 km/h 66% 0 mm
08:24 2.1 °C -3.8 °C 1024.3 hPa East 3.2 km/h 11.3 km/h 65% 0 mm
08:29 2.2 °C -3.7 °C 1023.9 hPa ENE 6.4 km/h 14.5 km/h 65% 0 mm
08:34 2.2 °C -3.7 °C 1023.9 hPa East 6.4 km/h 16.1 km/h 65% 0 mm
08:39 2.3 °C -3.6 °C 1023.6 hPa East 9.7 km/h 17.7 km/h 65% 0 mm
08:44 2.3 °C -3.4 °C 1023.6 hPa NE 8 km/h 16.1 km/h 66% 0 mm
08:49 2.4 °C -3.3 °C 1023.2 hPa ENE 6.4 km/h 16.1 km/h 66% 0 mm
08:54 2.4 °C -3.7 °C 1023.2 hPa ESE 6.4 km/h 16.1 km/h 64% 0 mm
08:59 2.5 °C -3.4 °C 1023.2 hPa ENE 6.4 km/h 16.1 km/h 65% 0 mm
09:04 2.6 °C -3.6 °C 1023.2 hPa East 8 km/h 20.9 km/h 64% 0 mm
09:09 2.6 °C -3.7 °C 1023.2 hPa East 4.8 km/h 20.9 km/h 63% 0 mm
09:14 2.8 °C -3.6 °C 1023.2 hPa East 4.8 km/h 12.9 km/h 63% 0 mm
09:19 2.9 °C -3.2 °C 1023.2 hPa NE 4.8 km/h 14.5 km/h 64% 0 mm
09:24 3 °C -3.6 °C 1023.2 hPa SE 9.7 km/h 20.9 km/h 62% 0 mm
09:29 3.1 °C -3.5 °C 1022.9 hPa East 9.7 km/h 24.1 km/h 62% 0 mm
09:34 3.3 °C -3.3 °C 1022.2 hPa East 9.7 km/h 24.1 km/h 62% 0 mm
09:39 3.4 °C -3.2 °C 1021.9 hPa ENE 9.7 km/h 24.1 km/h 62% 0 mm
09:44 3.8 °C -3.2 °C 1021.9 hPa ENE 9.7 km/h 22.5 km/h 60% 0 mm
09:49 3.9 °C -2.9 °C 1022.2 hPa East 8 km/h 20.9 km/h 61% 0 mm
09:54 4 °C -2.8 °C 1022.2 hPa East 9.7 km/h 22.5 km/h 61% 0 mm
09:59 4.1 °C -2.9 °C 1021.9 hPa East 14.5 km/h 16.1 km/h 60% 0 mm
10:04 4.1 °C -3 °C 1021.9 hPa NE 8 km/h 22.5 km/h 60% 0 mm
10:09 4.1 °C -3.2 °C 1021.9 hPa East 4.8 km/h 19.3 km/h 59% 0 mm
10:14 4.1 °C -3 °C 1021.9 hPa East 12.9 km/h 24.1 km/h 60% 0 mm
10:19 4.1 °C -3.5 °C 1021.9 hPa East 11.3 km/h 20.9 km/h 58% 0 mm
10:24 4.1 °C -3.2 °C 1021.9 hPa East 11.3 km/h 20.9 km/h 59% 0 mm
10:29 4.2 °C -3.2 °C 1021.6 hPa ENE 11.3 km/h 24.1 km/h 59% 0 mm
10:34 4.3 °C -3 °C 1021.6 hPa ENE 11.3 km/h 24.1 km/h 59% 0 mm
10:39 4.6 °C -2.8 °C 1021.9 hPa ENE 9.7 km/h 20.9 km/h 59% 0 mm
10:44 4.7 °C -2.8 °C 1022.2 hPa ENE 8 km/h 20.9 km/h 58% 0 mm
10:49 4.8 °C -2.7 °C 1022.2 hPa ESE 12.9 km/h 19.3 km/h 58% 0 mm
10:54 4.8 °C -2.8 °C 1022.2 hPa ENE 11.3 km/h 20.9 km/h 58% 0 mm
10:59 4.8 °C -3 °C 1022.2 hPa ENE 11.3 km/h 27.4 km/h 57% 0 mm
11:04 5.1 °C -2.8 °C 1022.6 hPa East 9.7 km/h 22.5 km/h 57% 0 mm
11:09 5.1 °C -2.6 °C 1022.6 hPa NE 6.4 km/h 16.1 km/h 58% 0 mm
11:14 5.3 °C -2.7 °C 1022.6 hPa East 9.7 km/h 16.1 km/h 56% 0 mm
11:19 5.4 °C -2.7 °C 1022.9 hPa NNE 11.3 km/h 24.1 km/h 56% 0 mm
11:24 5.4 °C -2.4 °C 1022.9 hPa NE 9.7 km/h 16.1 km/h 57% 0 mm
11:29 5.5 °C -2.6 °C 1022.6 hPa ENE 8 km/h 20.9 km/h 56% 0 mm
11:34 5.3 °C -2.7 °C 1022.6 hPa East 11.3 km/h 24.1 km/h 56% 0 mm
11:39 5.4 °C -2.7 °C 1022.2 hPa East 11.3 km/h 24.1 km/h 56% 0 mm
11:44 5.6 °C -2.6 °C 1022.2 hPa East 9.7 km/h 24.1 km/h 56% 0 mm
11:49 5.7 °C -2.2 °C 1022.2 hPa East 9.7 km/h 22.5 km/h 57% 0 mm
11:54 5.6 °C -2.5 °C 1021.9 hPa ENE 8 km/h 20.9 km/h 56% 0 mm
11:59 5.5 °C -2.6 °C 1021.9 hPa East 8 km/h 20.9 km/h 56% 0 mm
12:04 5.5 °C -2.3 °C 1021.6 hPa ENE 8 km/h 20.9 km/h 57% 0 mm
12:09 5.5 °C -2.1 °C 1021.2 hPa ENE 4.8 km/h 14.5 km/h 58% 0 mm
12:14 5.5 °C -2.3 °C 1021.2 hPa NE 6.4 km/h 14.5 km/h 57% 0 mm
12:19 5.6 °C -2.3 °C 1021.2 hPa ENE 6.4 km/h 16.1 km/h 57% 0 mm
12:24 5.7 °C -2.2 °C 1020.9 hPa NE 17.7 km/h 20.9 km/h 57% 0 mm
12:29 5.7 °C -2.4 °C 1020.9 hPa ENE 6.4 km/h 20.9 km/h 56% 0 mm
12:34 5.7 °C -2.7 °C 1020.9 hPa East 8 km/h 20.9 km/h 55% 0 mm
12:39 5.7 °C -2.7 °C 1020.9 hPa East 8 km/h 20.9 km/h 55% 0 mm
12:44 5.6 °C -2.7 °C 1020.9 hPa East 14.5 km/h 16.1 km/h 55% 0 mm
12:49 5.6 °C -2.8 °C 1020.9 hPa ENE 12.9 km/h 22.5 km/h 55% 0 mm
12:54 5.6 °C -2.6 °C 1020.9 hPa East 11.3 km/h 20.9 km/h 56% 0 mm
12:59 5.6 °C -2.7 °C 1020.9 hPa ENE 8 km/h 20.9 km/h 55% 0 mm
13:04 5.6 °C -2.8 °C 1020.9 hPa ENE 8 km/h 22.5 km/h 55% 0 mm
13:09 5.5 °C -2.6 °C 1020.9 hPa ESE 14.5 km/h 24.1 km/h 56% 0 mm
13:14 5.5 °C -2.6 °C 1020.5 hPa NE 9.7 km/h 17.7 km/h 56% 0 mm
13:19 5.6 °C -2.6 °C 1020.5 hPa ENE 4.8 km/h 16.1 km/h 56% 0 mm
13:24 5.6 °C -2.3 °C 1020.5 hPa ESE 14.5 km/h 14.5 km/h 57% 0 mm
13:29 5.5 °C -2.3 °C 1020.5 hPa ENE 8 km/h 19.3 km/h 57% 0 mm
13:34 5.6 °C -2.3 °C 1020.5 hPa ENE 9.7 km/h 20.9 km/h 57% 0 mm
13:39 5.6 °C -2.1 °C 1020.5 hPa ENE 8 km/h 20.9 km/h 58% 0 mm
13:44 5.7 °C -2.2 °C 1020.5 hPa ESE 11.3 km/h 17.7 km/h 57% 0 mm
13:49 5.7 °C -2.2 °C 1020.5 hPa East 11.3 km/h 17.7 km/h 57% 0 mm
13:54 5.7 °C -2.2 °C 1020.5 hPa East 3.2 km/h 16.1 km/h 57% 0 mm
13:59 5.8 °C -1.8 °C 1020.2 hPa East 6.4 km/h 16.1 km/h 58% 0 mm
14:04 5.8 °C -2.1 °C 1020.2 hPa East 6.4 km/h 17.7 km/h 57% 0 mm
14:09 5.8 °C -2.1 °C 1020.2 hPa East 8 km/h 17.7 km/h 57% 0 mm
14:14 5.8 °C -2.3 °C 1020.2 hPa ENE 6.4 km/h 12.9 km/h 56% 0 mm
14:19 5.5 °C -1.2 °C 1020.2 hPa NE 1.6 km/h 24.1 km/h 62% 0 mm
14:24 5.1 °C -1.2 °C 1020.2 hPa SSE 4.8 km/h 16.1 km/h 64% 0 mm
14:29 4.8 °C -1.1 °C 1020.2 hPa ESE 8 km/h 20.9 km/h 66% 0 mm
14:34 4.4 °C -0.3 °C 1020.2 hPa ESE 8 km/h 24.1 km/h 71% 0 mm
14:39 4.2 °C -0.4 °C 1019.9 hPa South 3.2 km/h 20.9 km/h 72% 0 mm
14:44 3.9 °C -0.2 °C 1019.9 hPa SSE 6.4 km/h 17.7 km/h 75% 0 mm
14:49 3.3 °C -0.2 °C 1019.5 hPa SE 14.5 km/h 24.1 km/h 78% 0.25 mm
14:54 2.9 °C 0 °C 1019.2 hPa ESE 8 km/h 19.3 km/h 81% 0.25 mm
14:59 2.7 °C -0.1 °C 1018.5 hPa ESE 9.7 km/h 20.9 km/h 82% 0.51 mm
15:04 2.7 °C 0.2 °C 1018.8 hPa ESE 8 km/h 20.9 km/h 84% 0.51 mm
15:09 2.6 °C 0.3 °C 1019.2 hPa ESE 6.4 km/h 17.7 km/h 85% 0.51 mm
15:14 2.4 °C 0.2 °C 1019.2 hPa ESE 8 km/h 19.3 km/h 85% 0.76 mm
15:19 2.4 °C 0.3 °C 1018.8 hPa ESE 6.4 km/h 19.3 km/h 86% 1.02 mm
15:24 2.4 °C 0.3 °C 1018.8 hPa East 11.3 km/h 16.1 km/h 86% 1.02 mm
15:29 2.4 °C 0.4 °C 1018.8 hPa SE 1.6 km/h 16.1 km/h 87% 1.02 mm
15:34 2.4 °C 0.5 °C 1018.8 hPa East 8 km/h 19.3 km/h 87% 1.02 mm
15:39 2.4 °C 0.5 °C 1019.2 hPa East 8 km/h 19.3 km/h 87% 1.02 mm
15:44 2.5 °C 0.6 °C 1018.8 hPa ENE 6.4 km/h 14.5 km/h 87% 1.02 mm
15:49 2.6 °C 0.8 °C 1018.5 hPa NE 3.2 km/h 22.5 km/h 88% 1.02 mm
15:54 2.6 °C 0.8 °C 1018.5 hPa ESE 3.2 km/h 12.9 km/h 88% 1.02 mm
15:59 2.6 °C 0.6 °C 1018.2 hPa NE 9.7 km/h 22.5 km/h 87% 0.76 mm
16:04 2.7 °C 0.9 °C 1017.8 hPa East 8 km/h 22.5 km/h 88% 0.76 mm
16:09 2.7 °C 0.9 °C 1017.5 hPa East 9.7 km/h 20.9 km/h 88% 1.02 mm
16:14 2.8 °C 1 °C 1017.5 hPa East 9.7 km/h 20.9 km/h 88% 0.76 mm
16:19 2.8 °C 1.1 °C 1017.2 hPa ENE 9.7 km/h 22.5 km/h 88% 0.51 mm
16:24 2.9 °C 1.1 °C 1017.8 hPa ENE 11.3 km/h 22.5 km/h 88% 0.51 mm
16:29 2.9 °C 0.9 °C 1017.5 hPa ENE 8 km/h 19.3 km/h 87% 0.51 mm
16:34 2.9 °C 1 °C 1017.2 hPa East 16.1 km/h 20.9 km/h 87% 0.51 mm
16:39 3.1 °C 1.1 °C 1017.5 hPa ENE 9.7 km/h 20.9 km/h 87% 0.51 mm
16:44 3.2 °C 1.1 °C 1016.8 hPa NE 8 km/h 19.3 km/h 86% 0.51 mm
16:49 3.2 °C 1.1 °C 1016.5 hPa ENE 6.4 km/h 22.5 km/h 86% 0.25 mm
16:54 3.3 °C 1.2 °C 1016.1 hPa ESE 11.3 km/h 17.7 km/h 86% 0.25 mm
16:59 3.3 °C 1 °C 1016.1 hPa ENE 6.4 km/h 24.1 km/h 85% 0.25 mm
17:04 3.3 °C 1.1 °C 1016.1 hPa ENE 12.9 km/h 24.1 km/h 85% 0.25 mm
17:09 3.3 °C 1.1 °C 1016.1 hPa ENE 9.7 km/h 24.1 km/h 85% 0 mm
17:14 3.4 °C 1.1 °C 1016.1 hPa ENE 9.7 km/h 20.9 km/h 85% 0 mm
17:19 3.4 °C 1.1 °C 1016.1 hPa ENE 9.7 km/h 22.5 km/h 85% 0 mm
17:24 3.4 °C 0.9 °C 1016.1 hPa ENE 9.7 km/h 25.7 km/h 84% 0 mm
17:29 3.4 °C 1 °C 1016.5 hPa ENE 9.7 km/h 25.7 km/h 84% 0 mm
17:34 3.5 °C 1.1 °C 1016.8 hPa NE 9.7 km/h 24.1 km/h 84% 0 mm
17:39 3.6 °C 1.2 °C 1016.5 hPa NE 4.8 km/h 16.1 km/h 84% 0 mm
17:44 3.6 °C 1.2 °C 1016.5 hPa ENE 6.4 km/h 17.7 km/h 84% 0 mm
17:49 3.7 °C 1.2 °C 1016.8 hPa NE 11.3 km/h 19.3 km/h 84% 0 mm
17:54 3.7 °C 1.2 °C 1016.8 hPa NE 6.4 km/h 14.5 km/h 84% 0 mm
17:59 3.7 °C 1.3 °C 1016.5 hPa East 4.8 km/h 17.7 km/h 84% 0 mm
18:04 3.8 °C 1.3 °C 1016.5 hPa ENE 14.5 km/h 24.1 km/h 84% 0 mm
18:09 3.8 °C 1.2 °C 1016.1 hPa ENE 12.9 km/h 22.5 km/h 83% 0 mm
18:14 3.8 °C 1.3 °C 1015.8 hPa ENE 11.3 km/h 22.5 km/h 84% 0 mm
18:19 3.7 °C 1.3 °C 1015.5 hPa ENE 8 km/h 17.7 km/h 84% 0 mm
18:24 3.7 °C 1.2 °C 1015.1 hPa ENE 11.3 km/h 22.5 km/h 84% 0 mm
18:29 3.6 °C 1.2 °C 1015.1 hPa ENE 12.9 km/h 22.5 km/h 84% 0 mm
18:34 3.6 °C 1.2 °C 1014.8 hPa ENE 11.3 km/h 24.1 km/h 84% 0 mm
18:39 3.6 °C 1.2 °C 1014.1 hPa NE 17.7 km/h 17.7 km/h 84% 0 mm
18:44 3.6 °C 1.1 °C 1013.8 hPa East 14.5 km/h 25.7 km/h 84% 0 mm
18:49 3.6 °C 1.1 °C 1014.1 hPa ENE 11.3 km/h 25.7 km/h 84% 0 mm
18:54 3.6 °C 1.1 °C 1014.4 hPa ENE 11.3 km/h 25.7 km/h 84% 0 mm
18:59 3.6 °C 1.1 °C 1015.1 hPa ENE 9.7 km/h 25.7 km/h 84% 0 mm
19:04 3.6 °C 1.1 °C 1015.1 hPa East 8 km/h 19.3 km/h 84% 0 mm
19:09 3.6 °C 1.3 °C 1015.5 hPa East 12.9 km/h 19.3 km/h 85% 0 mm
19:14 3.6 °C 1.3 °C 1015.5 hPa NNE 6.4 km/h 16.1 km/h 85% 0 mm
19:19 3.6 °C 1.3 °C 1015.8 hPa East 8 km/h 16.1 km/h 85% 0 mm
19:24 3.6 °C 1.3 °C 1015.1 hPa ENE 8 km/h 16.1 km/h 85% 0 mm
19:29 3.6 °C 1.3 °C 1015.5 hPa ENE 8 km/h 17.7 km/h 85% 0.25 mm
19:34 3.5 °C 1.4 °C 1016.1 hPa ENE 8 km/h 17.7 km/h 86% 0.25 mm
19:39 3.5 °C 1.4 °C 1016.1 hPa ENE 6.4 km/h 12.9 km/h 86% 0.51 mm
19:44 3.5 °C 1.6 °C 1016.5 hPa ENE 4.8 km/h 12.9 km/h 87% 1.02 mm
19:49 3.4 °C 1.5 °C 1015.8 hPa NE 6.4 km/h 14.5 km/h 87% 1.52 mm
19:54 3.4 °C 1.4 °C 1015.5 hPa ENE 6.4 km/h 19.3 km/h 87% 2.03 mm
19:59 3.3 °C 1.4 °C 1015.1 hPa East 4.8 km/h 17.7 km/h 87% 2.29 mm
20:04 3.3 °C 1.5 °C 1015.1 hPa ENE 4.8 km/h 16.1 km/h 88% 2.54 mm
20:09 3.3 °C 1.5 °C 1015.5 hPa NE 8 km/h 14.5 km/h 88% 2.79 mm
20:14 3.2 °C 1.4 °C 1015.1 hPa NE 9.7 km/h 19.3 km/h 88% 2.79 mm
20:19 3.2 °C 1.4 °C 1014.8 hPa ENE 8 km/h 19.3 km/h 88% 3.05 mm
20:24 3.2 °C 1.6 °C 1015.1 hPa ENE 8 km/h 17.7 km/h 89% 3.56 mm
20:29 3.2 °C 1.6 °C 1014.4 hPa ENE 8 km/h 19.3 km/h 89% 3.56 mm
20:34 3.2 °C 1.6 °C 1015.1 hPa ENE 8 km/h 19.3 km/h 89% 3.81 mm
20:39 3.1 °C 1.5 °C 1015.1 hPa ENE 6.4 km/h 12.9 km/h 89% 3.81 mm
20:44 3.1 °C 1.5 °C 1015.1 hPa East 6.4 km/h 16.1 km/h 89% 3.3 mm
20:49 3.1 °C 1.5 °C 1014.8 hPa NE 9.7 km/h 14.5 km/h 89% 3.05 mm
20:54 3.1 °C 1.5 °C 1014.4 hPa NE 6.4 km/h 17.7 km/h 89% 2.79 mm
21:04 3.2 °C 1.7 °C 1014.8 hPa ENE 6.4 km/h 14.5 km/h 90% 2.54 mm
21:09 3.1 °C 1.6 °C 1014.8 hPa NNE 3.2 km/h 16.1 km/h 90% 2.29 mm
21:14 3.1 °C 1.6 °C 1014.8 hPa NNE 8 km/h 20.9 km/h 90% 2.54 mm
21:19 3.1 °C 1.6 °C 1014.8 hPa NE 12.9 km/h 19.3 km/h 90% 2.29 mm
21:24 3.1 °C 1.6 °C 1014.8 hPa NE 11.3 km/h 20.9 km/h 90% 1.78 mm
21:29 3.1 °C 1.6 °C 1014.8 hPa NE 12.9 km/h 22.5 km/h 90% 1.52 mm
21:34 3 °C 1.5 °C 1014.8 hPa NE 12.9 km/h 22.5 km/h 90% 1.27 mm
21:40 3 °C 1.5 °C 1014.8 hPa NE 9.7 km/h 20.9 km/h 90% 1.02 mm
21:45 2.9 °C 1.4 °C 1014.4 hPa NE 14.5 km/h 22.5 km/h 90% 1.02 mm
21:59 2.9 °C 1.4 °C 1014.1 hPa NE 11.3 km/h 22.5 km/h 90% 0.76 mm
22:05 2.9 °C 1.4 °C 1014.1 hPa NE 19.3 km/h 27.4 km/h 90% 0 mm
22:10 3 °C 1.5 °C 1013.8 hPa ENE 12.9 km/h 27.4 km/h 90% 0 mm
22:15 3 °C 1.5 °C 1013.8 hPa NE 11.3 km/h 27.4 km/h 90% 0 mm
22:20 3.1 °C 1.6 °C 1013.4 hPa NE 12.9 km/h 17.7 km/h 90% 0 mm
22:25 3.1 °C 1.6 °C 1013.4 hPa ENE 12.9 km/h 17.7 km/h 90% 0 mm
22:30 3.1 °C 1.4 °C 1013.4 hPa NE 4.8 km/h 27.4 km/h 89% 0 mm
22:35 3.1 °C 1.5 °C 1013.8 hPa East 11.3 km/h 17.7 km/h 89% 0 mm
22:40 3.2 °C 1.6 °C 1013.8 hPa ENE 14.5 km/h 20.9 km/h 89% 0 mm
22:45 3.2 °C 1.6 °C 1014.1 hPa ENE 8 km/h 20.9 km/h 89% 0 mm
22:50 3.2 °C 1.6 °C 1013.8 hPa ENE 9.7 km/h 24.1 km/h 89% 0 mm
22:55 3.2 °C 1.6 °C 1013.8 hPa ENE 9.7 km/h 24.1 km/h 89% 0 mm
23:00 3.3 °C 1.6 °C 1013.4 hPa ENE 8 km/h 17.7 km/h 89% 0 mm
23:05 3.3 °C 1.6 °C 1013.4 hPa ENE 9.7 km/h 17.7 km/h 89% 0 mm
23:10 3.3 °C 1.6 °C 1013.8 hPa NE 9.7 km/h 19.3 km/h 89% 0 mm
23:15 3.3 °C 1.5 °C 1014.1 hPa ENE 16.1 km/h 20.9 km/h 88% 0 mm
23:20 3.3 °C 1.5 °C 1013.8 hPa NE 14.5 km/h 22.5 km/h 88% 0 mm
23:25 3.3 °C 1.6 °C 1013.1 hPa NE 11.3 km/h 24.1 km/h 88% 0 mm
23:30 3.3 °C 1.6 °C 1011.7 hPa ENE 8 km/h 29 km/h 88% 0 mm
23:35 3.3 °C 1.5 °C 1011.1 hPa ENE 14.5 km/h 27.4 km/h 88% 0 mm
23:40 3.3 °C 1.5 °C 1010.7 hPa ESE 12.9 km/h 27.4 km/h 88% 0 mm
23:45 3.2 °C 1.4 °C 1010.4 hPa SE 14.5 km/h 30.6 km/h 88% 0 mm
23:50 3.2 °C 1.4 °C 1010.7 hPa SE 16.1 km/h 29 km/h 88% 0 mm
23:55 3.2 °C 1.4 °C 1010.7 hPa East 12.9 km/h 29 km/h 88% 0 mm
Buffalo, New York, USA
Compliments of Weather Underground - 2.5 mb